createdAt,value
2022-10-10T15:12:34.911Z,15.91
2022-10-10T15:15:04.035Z,15.85
2022-10-10T15:17:34.279Z,15.81
2022-10-10T15:20:02.308Z,15.83
2022-10-10T15:22:30.732Z,15.80
2022-10-10T15:25:00.404Z,15.75
2022-10-10T15:27:29.163Z,15.75
2022-10-10T15:29:57.264Z,15.63
2022-10-10T15:32:25.211Z,15.58
2022-10-10T15:34:53.392Z,15.59
2022-10-10T15:37:21.313Z,15.53
2022-10-10T15:39:49.124Z,15.41
2022-10-10T15:42:22.728Z,15.23
2022-10-10T15:44:51.140Z,15.27
2022-10-10T15:47:19.876Z,15.26
2022-10-10T15:49:47.991Z,15.14
2022-10-10T15:52:16.381Z,15.02
2022-10-10T15:54:48.478Z,15.10
2022-10-10T15:57:18.672Z,14.98
2022-10-10T16:00:14.994Z,15.06
2022-10-10T16:02:43.032Z,14.90
2022-10-10T16:05:11.171Z,14.76
2022-10-10T16:07:48.390Z,14.95
2022-10-10T16:10:16.859Z,14.80
2022-10-10T16:12:44.824Z,14.84
2022-10-10T16:15:25.939Z,14.85
2022-10-10T16:17:53.891Z,14.62
2022-10-10T16:20:21.862Z,14.58
2022-10-10T16:22:50.052Z,14.64
2022-10-10T16:25:22.950Z,14.67
2022-10-10T16:27:52.651Z,14.62
2022-10-10T16:30:21.172Z,14.59
2022-10-10T23:30:32.155Z,10.12
2022-10-10T23:33:00.405Z,10.11
2022-10-10T23:35:28.077Z,10.05
2022-10-10T23:37:56.862Z,10.10
2022-10-10T23:40:26.003Z,9.78
2022-10-10T23:42:53.817Z,10.06
2022-10-10T23:45:22.100Z,10.09
2022-10-10T23:47:51.357Z,10.12
2022-10-10T23:50:19.049Z,10.17
2022-10-10T23:52:46.727Z,10.08
2022-10-10T23:55:14.452Z,10.14
2022-10-10T23:57:42.095Z,10.18
